Time;durP1;ratioP1;P1;durP2;ratioP2;P2;SDS_P1;SDS_P2;PMS_P1;PMS_P2;Temp;Humidity;BMP_temperature;BMP_pressure;BME280_temperature;BME280_humidity;BME280_pressure;Samples;Min_cycle;Max_cycle;Signal;HPM_P1;HPM_P2
2024/02/03 00:02:27;;;;;;;24.70;20.70;;;;;;;8.54;100.00;101664.13;10103944;28;20047;-73
2024/02/03 00:07:23;;;;;;;24.52;21.77;;;;;;;8.42;100.00;101639.09;10092834;28;20046;-73
2024/02/03 00:12:22;;;;;;;24.00;21.92;;;;;;;8.35;100.00;101638.56;10102731;28;20093;-73
2024/02/03 00:17:19;;;;;;;24.35;21.77;;;;;;;8.25;100.00;101616.81;10097322;28;20057;-73
2024/02/03 00:22:15;;;;;;;23.35;20.95;;;;;;;8.20;100.00;101615.75;10104100;28;20494;-74
2024/02/03 00:27:12;;;;;;;24.50;21.17;;;;;;;8.14;100.00;101610.59;10111683;28;20058;-74
2024/02/03 00:32:09;;;;;;;23.17;19.98;;;;;;;8.11;100.00;101578.47;10103584;28;20039;-73
2024/02/03 00:37:06;;;;;;;20.60;18.52;;;;;;;8.02;100.00;101535.47;10095849;28;20068;-74
2024/02/03 00:42:02;;;;;;;22.00;16.85;;;;;;;8.00;100.00;101523.22;10110459;28;20068;-75
2024/02/03 00:46:59;;;;;;;19.98;15.68;;;;;;;8.00;100.00;101490.53;10105736;28;20043;-75
2024/02/03 00:51:55;;;;;;;20.25;15.23;;;;;;;7.98;100.00;101492.72;10105394;28;20038;-75
2024/02/03 00:56:52;;;;;;;18.48;14.15;;;;;;;7.99;100.00;101472.59;10098352;28;20046;-76
2024/02/03 01:01:48;;;;;;;17.58;13.15;;;;;;;8.03;100.00;101470.94;10100452;28;20043;-74
2024/02/03 01:06:45;;;;;;;17.88;13.23;;;;;;;8.02;100.00;101450.22;10099240;28;20047;-73
2024/02/03 01:11:42;;;;;;;12.02;10.77;;;;;;;8.04;100.00;101469.84;10097352;28;20057;-76
2024/02/03 01:16:38;;;;;;;12.82;10.55;;;;;;;8.01;100.00;101456.78;10101145;28;20046;-79
2024/02/03 01:21:35;;;;;;;16.92;11.85;;;;;;;8.06;100.00;101453.22;10101606;28;20105;-73
2024/02/03 01:26:31;;;;;;;10.55;7.70;;;;;;;8.03;100.00;101446.44;10100506;28;20047;-76
2024/02/03 01:31:28;;;;;;;16.52;13.55;;;;;;;8.04;100.00;101458.94;10100245;28;20046;-76
2024/02/03 01:36:24;;;;;;;17.10;13.05;;;;;;;8.04;100.00;101453.50;10104470;28;20077;-76
2024/02/03 01:41:21;;;;;;;16.75;11.48;;;;;;;8.04;100.00;101458.94;10097357;28;20052;-75
2024/02/03 01:46:18;;;;;;;17.20;12.43;;;;;;;8.04;100.00;101448.03;10109378;28;20066;-76
2024/02/03 01:51:18;;;;;;;16.73;12.48;;;;;;;8.06;100.00;101445.84;10109919;28;20053;-76
2024/02/03 01:56:18;;;;;;;15.43;11.32;;;;;;;8.12;100.00;101454.78;10108505;28;20051;-76
2024/02/03 02:01:15;;;;;;;12.75;10.65;;;;;;;8.11;100.00;101453.97;10110697;28;20093;-76
2024/02/03 02:06:12;;;;;;;13.82;12.07;;;;;;;8.12;100.00;101444.72;10104172;28;20068;-73
2024/02/03 02:11:08;;;;;;;18.27;12.45;;;;;;;8.17;100.00;101452.06;10105854;28;20050;-74
2024/02/03 02:16:05;;;;;;;14.00;10.95;;;;;;;8.18;100.00;101438.13;10115781;28;20050;-72
2024/02/03 02:21:02;;;;;;;17.30;11.95;;;;;;;8.20;100.00;101446.84;10102093;28;20047;-73
2024/02/03 02:25:58;;;;;;;16.80;12.77;;;;;;;8.22;100.00;101444.66;10111408;28;20058;-73
2024/02/03 02:30:55;;;;;;;15.93;12.10;;;;;;;8.25;100.00;101459.59;10115394;28;20043;-73
2024/02/03 02:35:52;;;;;;;18.17;11.88;;;;;;;8.27;100.00;101426.63;10106152;28;20051;-73
2024/02/03 02:40:48;;;;;;;16.92;11.95;;;;;;;8.26;100.00;101436.69;10113731;28;20042;-72
2024/02/03 02:45:45;;;;;;;17.05;12.25;;;;;;;8.26;100.00;101444.06;10106380;28;20499;-71
2024/02/03 02:50:41;;;;;;;26.48;14.40;;;;;;;8.29;100.00;101422.53;10111793;28;20046;-75
2024/02/03 02:55:38;;;;;;;19.50;11.63;;;;;;;8.27;100.00;101423.91;10100656;28;20039;-76
2024/02/03 03:00:34;;;;;;;20.60;10.77;;;;;;;8.26;100.00;101416.81;10118982;28;20470;-76
2024/02/03 03:05:31;;;;;;;19.50;11.55;;;;;;;8.26;100.00;101423.06;10103645;28;20138;-76
2024/02/03 03:10:27;;;;;;;25.73;12.32;;;;;;;8.23;100.00;101408.13;10105320;28;20043;-75
2024/02/03 03:15:24;;;;;;;21.10;12.30;;;;;;;8.23;100.00;101416.28;10111776;28;20046;-77
2024/02/03 03:20:21;;;;;;;22.50;11.45;;;;;;;8.23;100.00;101402.66;10115589;28;20062;-75
2024/02/03 03:25:17;;;;;;;17.15;11.35;;;;;;;8.22;100.00;101403.78;10092095;28;20462;-75
2024/02/03 03:30:14;;;;;;;16.70;12.40;;;;;;;8.21;100.00;101404.88;10104988;28;20090;-73
2024/02/03 03:35:10;;;;;;;27.15;14.40;;;;;;;8.20;100.00;101405.97;10103701;28;20055;-73
2024/02/03 03:40:07;;;;;;;23.15;15.68;;;;;;;8.21;100.00;101396.72;10112182;28;20537;-72
2024/02/03 03:45:04;;;;;;;22.38;12.27;;;;;;;8.21;100.00;101398.59;10108813;28;20062;-73
2024/02/03 03:50:01;;;;;;;24.98;12.20;;;;;;;8.19;100.00;101398.91;10104295;28;20051;-72
2024/02/03 03:54:58;;;;;;;18.65;11.20;;;;;;;8.19;100.00;101408.97;10101099;28;20047;-74
2024/02/03 03:59:54;;;;;;;18.63;14.13;;;;;;;8.19;100.00;101417.16;10110493;28;20094;-73
2024/02/03 04:04:51;;;;;;;15.70;11.45;;;;;;;8.18;100.00;101442.78;10106523;28;20466;-73
2024/02/03 04:09:48;;;;;;;21.48;12.52;;;;;;;8.19;100.00;101407.09;10106355;28;20442;-73
2024/02/03 04:14:48;;;;;;;19.25;13.00;;;;;;;8.16;100.00;101402.19;10096362;28;20047;-74
2024/02/03 04:19:45;;;;;;;23.98;11.55;;;;;;;8.19;100.00;101407.09;10099847;28;20074;-73
2024/02/03 04:24:41;;;;;;;22.90;11.77;;;;;;;8.14;100.00;101393.47;10105888;28;20047;-74
2024/02/03 04:29:38;;;;;;;19.55;12.07;;;;;;;8.18;100.00;101394.53;10105125;28;20047;-75
2024/02/03 04:34:34;;;;;;;16.88;10.65;;;;;;;8.20;100.00;101392.34;10095606;28;20043;-74
2024/02/03 04:39:31;;;;;;;21.15;12.45;;;;;;;8.23;100.00;101391.78;10105220;28;20039;-75
2024/02/03 04:44:28;;;;;;;20.45;10.82;;;;;;;8.23;100.00;101386.31;10109089;28;20046;-76
2024/02/03 04:49:24;;;;;;;18.92;12.18;;;;;;;8.20;100.00;101376.00;10108628;28;20038;-75
2024/02/03 04:54:21;;;;;;;15.90;10.13;;;;;;;8.21;100.00;101365.91;10100951;28;20126;-75
2024/02/03 04:59:17;;;;;;;21.35;11.18;;;;;;;8.25;100.00;101361.53;10104113;28;20039;-75
2024/02/03 05:04:14;;;;;;;19.60;10.68;;;;;;;8.25;100.00;101377.88;10107591;28;20047;-74
2024/02/03 05:09:11;;;;;;;17.02;10.55;;;;;;;8.29;100.00;101367.22;10102976;28;20566;-74
2024/02/03 05:14:08;;;;;;;17.73;10.38;;;;;;;8.30;100.00;101355.22;10109750;28;20499;-74
2024/02/03 05:19:09;;;;;;;21.00;10.80;;;;;;;8.32;100.00;101339.41;10114475;28;20051;-74
2024/02/03 05:24:06;;;;;;;19.73;9.63;;;;;;;8.35;100.00;101344.28;10104784;28;20051;-76
2024/02/03 05:29:02;;;;;;;15.88;10.32;;;;;;;8.34;100.00;101369.91;10109915;28;20062;-77
2024/02/03 05:33:59;;;;;;;14.13;9.65;;;;;;;8.36;100.00;101340.47;10109843;28;20090;-75
2024/02/03 05:38:55;;;;;;;17.55;10.82;;;;;;;8.38;100.00;101349.16;10096708;28;20043;-73
2024/02/03 05:43:52;;;;;;;15.23;10.88;;;;;;;8.43;100.00;101351.88;10105350;28;20049;-75
2024/02/03 05:48:49;;;;;;;17.05;10.32;;;;;;;8.46;100.00;101359.44;10099082;28;20130;-75
2024/02/03 05:53:45;;;;;;;20.25;11.60;;;;;;;8.44;100.00;101358.94;10106008;28;20049;-75
2024/02/03 05:58:44;;;;;;;16.80;11.32;;;;;;;8.48;100.00;101354.53;10113678;28;20042;-74
2024/02/03 06:03:40;;;;;;;17.48;12.48;;;;;;;8.47;100.00;101358.38;10105523;28;20074;-74
2024/02/03 06:08:37;;;;;;;16.20;11.68;;;;;;;8.54;100.00;101372.47;10103127;28;20450;-74
2024/02/03 06:13:33;;;;;;;18.02;12.93;;;;;;;8.54;100.00;101369.75;10109202;28;20062;-73
2024/02/03 06:18:30;;;;;;;19.15;13.18;;;;;;;8.60;100.00;101374.03;10108117;28;20103;-73
2024/02/03 06:23:26;;;;;;;20.92;13.90;;;;;;;8.61;100.00;101381.13;10119811;28;20039;-74
2024/02/03 06:28:24;;;;;;;21.10;13.68;;;;;;;8.63;100.00;101389.81;10102004;28;20043;-73
2024/02/03 06:33:20;;;;;;;16.35;13.63;;;;;;;8.63;100.00;101406.19;10111363;28;20101;-71
2024/02/03 06:38:17;;;;;;;15.88;13.93;;;;;;;8.69;100.00;101414.31;10098309;28;20050;-72
2024/02/03 06:43:13;;;;;;;19.05;13.82;;;;;;;8.74;100.00;101425.16;10107988;28;20056;-73
2024/02/03 06:48:10;;;;;;;16.20;13.00;;;;;;;8.78;100.00;101428.94;10097409;28;20054;-73
2024/02/03 06:53:08;;;;;;;18.70;12.95;;;;;;;8.77;100.00;101451.81;10107520;28;20053;-73
2024/02/03 06:58:04;;;;;;;14.77;12.35;;;;;;;8.82;100.00;101473.63;10097739;28;20047;-73
2024/02/03 07:03:00;;;;;;;16.05;12.05;;;;;;;8.82;100.00;101476.34;10105957;28;20528;-73
2024/02/03 07:07:57;;;;;;;16.85;12.10;;;;;;;8.84;100.00;101490.47;10108621;28;20093;-72
2024/02/03 07:12:54;;;;;;;13.43;11.82;;;;;;;8.93;100.00;101504.31;10103774;28;20043;-71
2024/02/03 07:17:51;;;;;;;14.30;11.60;;;;;;;8.90;100.00;101508.44;10098933;28;20126;-74
2024/02/03 07:22:47;;;;;;;15.95;12.20;;;;;;;8.92;100.00;101510.88;10111638;28;20050;-73
2024/02/03 07:27:44;;;;;;;12.93;11.20;;;;;;;8.93;100.00;101529.66;10096912;28;20519;-73
2024/02/03 07:32:42;;;;;;;13.77;12.35;;;;;;;8.94;100.00;101536.75;10101687;28;20566;-73
2024/02/03 07:37:38;;;;;;;17.90;12.23;;;;;;;8.92;100.00;101543.59;10118186;28;20514;-73
2024/02/03 07:42:35;;;;;;;15.77;11.90;;;;;;;8.93;100.00;101548.75;10112373;28;20057;-73
2024/02/03 07:47:33;;;;;;;20.17;12.90;;;;;;;8.92;100.00;101533.50;10107279;28;20049;-73
2024/02/03 07:52:29;;;;;;;12.52;11.15;;;;;;;8.95;100.00;101549.28;10107851;28;20055;-72
2024/02/03 07:57:26;;;;;;;14.18;11.77;;;;;;;8.96;100.00;101561.03;10099848;28;20057;-72
2024/02/03 08:02:23;;;;;;;16.90;11.88;;;;;;;8.95;100.00;101570.31;10105801;28;20070;-72
2024/02/03 08:07:19;;;;;;;13.32;11.15;;;;;;;8.94;100.00;101574.94;10108491;28;20048;-74
2024/02/03 08:12:16;;;;;;;14.48;10.75;;;;;;;8.96;100.00;101596.50;10103986;28;20047;-72
2024/02/03 08:17:12;;;;;;;14.20;11.63;;;;;;;8.98;100.00;101597.84;10100721;28;20055;-73
2024/02/03 08:22:09;;;;;;;19.10;11.88;;;;;;;8.99;100.00;101598.66;10104896;28;20414;-73
2024/02/03 08:27:05;;;;;;;20.73;12.30;;;;;;;8.98;100.00;101603.28;10097653;28;20061;-71
2024/02/03 08:32:02;;;;;;;19.80;12.07;;;;;;;8.97;100.00;101607.09;10101628;28;20042;-72
2024/02/03 08:36:59;;;;;;;16.60;12.07;;;;;;;8.96;100.00;101615.59;10101867;28;20434;-72
2024/02/03 08:41:55;;;;;;;14.55;12.07;;;;;;;8.84;100.00;101585.94;10096773;28;20043;-72
2024/02/03 08:46:52;;;;;;;13.48;11.20;;;;;;;8.76;100.00;101584.63;10098786;28;20090;-73
2024/02/03 08:51:48;;;;;;;20.17;12.15;;;;;;;8.78;100.00;101565.28;10098944;28;20499;-73
2024/02/03 08:56:44;;;;;;;18.35;11.45;;;;;;;8.75;100.00;101563.09;10102943;28;20043;-73
2024/02/03 09:01:41;;;;;;;25.80;11.70;;;;;;;8.76;100.00;101556.56;10102325;28;20051;-74
2024/02/03 09:06:38;;;;;;;17.77;11.90;;;;;;;8.75;100.00;101541.28;10102520;28;20533;-74
2024/02/03 09:11:34;;;;;;;22.65;13.75;;;;;;;8.75;100.00;101550.28;10093471;28;20047;-74
2024/02/03 09:16:31;;;;;;;19.08;12.68;;;;;;;8.83;100.00;101540.69;10095384;28;20070;-74
2024/02/03 09:21:27;;;;;;;17.88;11.63;;;;;;;8.82;100.00;101544.53;10103807;28;20043;-74
2024/02/03 09:26:24;;;;;;;16.23;10.45;;;;;;;8.84;100.00;101539.56;10095273;28;20499;-78
2024/02/03 09:31:20;;;;;;;16.17;12.15;;;;;;;8.89;100.00;101545.00;10102251;28;20085;-75
2024/02/03 09:36:17;;;;;;;20.23;12.95;;;;;;;8.93;100.00;101567.84;10099647;28;20073;-74
2024/02/03 09:41:13;;;;;;;19.15;12.75;;;;;;;8.94;100.00;101579.59;10095635;28;20070;-73
2024/02/03 09:46:10;;;;;;;15.80;12.10;;;;;;;8.93;100.00;101575.22;10093681;28;20039;-75
2024/02/03 09:51:06;;;;;;;17.45;12.38;;;;;;;8.97;100.00;101568.91;10103870;28;20042;-76
2024/02/03 09:56:06;;;;;;;16.27;12.70;;;;;;;9.04;100.00;101574.84;10089419;28;20046;-75
2024/02/03 10:01:03;;;;;;;17.70;11.88;;;;;;;9.04;100.00;101574.84;10104410;28;20061;-77
2024/02/03 10:06:03;;;;;;;18.77;13.35;;;;;;;9.09;100.00;101586.81;10103944;28;20078;-76
2024/02/03 10:11:00;;;;;;;12.48;11.30;;;;;;;9.02;100.00;101593.41;10109222;28;20069;-76
2024/02/03 10:16:01;;;;;;;17.00;11.95;;;;;;;9.02;100.00;101590.69;10111266;28;20707;-77
2024/02/03 10:21:00;;;;;;;23.75;13.35;;;;;;;9.04;100.00;101596.69;10106537;28;20042;-73
2024/02/03 10:25:57;;;;;;;16.67;12.55;;;;;;;9.10;100.00;101593.91;10110550;28;20117;-73
2024/02/03 10:30:57;;;;;;;22.27;13.23;;;;;;;9.10;100.00;101607.53;10103844;28;20058;-73
2024/02/03 10:35:58;;;;;;;22.02;13.57;;;;;;;9.12;100.00;101621.72;10100842;28;20503;-73
2024/02/03 10:40:55;;;;;;;17.92;14.07;;;;;;;9.15;100.00;101637.53;10119793;28;20074;-73
2024/02/03 10:45:56;;;;;;;13.90;12.20;;;;;;;9.18;100.00;101634.22;10112856;28;20399;-73
2024/02/03 10:50:57;;;;;;;13.18;11.88;;;;;;;9.33;100.00;101631.38;10112467;28;20104;-72
2024/02/03 10:55:57;;;;;;;14.32;12.10;;;;;;;9.34;100.00;101656.75;10100686;28;20048;-73
2024/02/03 11:00:53;;;;;;;20.90;12.73;;;;;;;9.39;100.00;101635.66;10109366;28;20097;-71
2024/02/03 11:05:53;;;;;;;27.38;15.02;;;;;;;9.42;100.00;101659.66;10101664;28;20047;-72
2024/02/03 11:10:51;;;;;;;18.63;12.75;;;;;;;9.23;100.00;101656.00;10102884;28;20051;-73
2024/02/03 11:15:58;;;;;;;21.38;14.07;;;;;;;9.17;100.00;101647.06;10111893;28;20399;-74
2024/02/03 11:21:05;;;;;;;19.02;12.10;;;;;;;9.10;100.00;101632.09;10103209;28;20041;-73
2024/02/03 11:26:02;;;;;;;13.15;11.85;;;;;;;9.05;100.00;101622.88;10098384;28;20130;-73
2024/02/03 11:31:00;;;;;;;17.00;11.55;;;;;;;9.01;100.00;101613.63;10099642;28;20138;-73
2024/02/03 11:36:00;;;;;;;25.42;10.90;;;;;;;9.02;100.00;101598.88;10102780;28;20814;-72
2024/02/03 11:40:57;;;;;;;18.65;12.20;;;;;;;9.00;100.00;101581.97;10095711;28;20063;-73
2024/02/03 11:46:04;;;;;;;15.82;11.80;;;;;;;8.96;100.00;101572.75;10090098;28;20047;-71
2024/02/03 11:51:02;;;;;;;17.95;12.40;;;;;;;9.01;100.00;101569.97;10112592;28;20055;-71
2024/02/03 11:56:00;;;;;;;19.92;11.43;;;;;;;9.09;100.00;101559.53;10097421;28;20050;-72
2024/02/03 12:01:08;;;;;;;16.75;12.27;;;;;;;9.06;100.00;101578.09;10118216;28;20534;-72
2024/02/03 12:06:05;;;;;;;18.67;12.95;;;;;;;9.05;100.00;101571.03;10095987;28;20053;-73
2024/02/03 12:11:03;;;;;;;18.38;12.55;;;;;;;9.06;100.00;101578.09;10101762;28;20050;-72
2024/02/03 12:15:59;;;;;;;20.02;11.35;;;;;;;8.98;100.00;101573.28;10097916;28;20043;-74
2024/02/03 12:20:56;;;;;;;12.15;10.85;;;;;;;8.96;100.00;101589.13;10101619;28;20150;-75
2024/02/03 12:25:53;;;;;;;20.30;12.32;;;;;;;8.93;100.00;101595.13;10103295;28;20410;-74
2024/02/03 12:30:56;;;;;;;17.50;11.68;;;;;;;8.98;100.00;101589.66;10098936;28;20122;-74
2024/02/03 12:35:53;;;;;;;17.10;12.75;;;;;;;9.09;100.00;101586.81;10098968;28;20133;-72
2024/02/03 12:40:50;;;;;;;15.27;12.23;;;;;;;9.25;100.00;101586.38;10096066;28;20047;-72
2024/02/03 12:45:48;;;;;;;14.77;12.40;;;;;;;9.24;100.00;101590.22;10103843;28;20049;-77
2024/02/03 12:50:45;;;;;;;22.35;13.02;;;;;;;9.18;100.00;101602.28;10107352;28;20101;-79
2024/02/03 12:55:42;;;;;;;16.42;12.68;;;;;;;9.18;100.00;101607.75;10087487;28;21124;-78
2024/02/03 13:00:38;;;;;;;14.82;13.32;;;;;;;9.20;100.00;101615.66;10098686;28;20066;-78
2024/02/03 13:05:35;;;;;;;16.10;14.00;;;;;;;9.21;100.00;101623.56;10106896;28;20105;-78
2024/02/03 13:10:31;;;;;;;18.92;13.75;;;;;;;9.22;100.00;101635.28;10105349;28;20071;-78
2024/02/03 13:15:28;;;;;;;18.98;12.70;;;;;;;9.09;100.00;101646.84;10104217;28;20086;-80
2024/02/03 13:20:24;;;;;;;14.93;12.90;;;;;;;9.02;100.00;101658.88;10091899;28;20541;-80
2024/02/03 13:25:21;;;;;;;18.77;12.85;;;;;;;9.03;100.00;101671.44;10106302;28;20058;-80
2024/02/03 13:30:17;;;;;;;17.52;12.80;;;;;;;9.06;100.00;101664.59;10096430;28;20075;-78
2024/02/03 13:35:14;;;;;;;27.45;12.02;;;;;;;9.04;100.00;101678.50;10104867;28;20057;-79
2024/02/03 13:40:11;;;;;;;23.17;12.23;;;;;;;9.08;100.00;101661.59;10103610;28;20046;-77
2024/02/03 13:45:08;;;;;;;24.95;13.15;;;;;;;9.26;100.00;101655.44;10115464;28;20042;-74
2024/02/03 13:50:05;;;;;;;13.00;11.18;;;;;;;9.24;100.00;101676.75;10103863;28;20054;-75
2024/02/03 13:55:01;;;;;;;16.10;10.98;;;;;;;9.29;100.00;101701.25;10116535;28;20055;-73
2024/02/03 13:59:58;;;;;;;26.77;9.77;;;;;;;9.18;100.00;101694.25;10104644;28;20051;-74
2024/02/03 14:04:55;;;;;;;18.83;8.88;;;;;;;9.18;100.00;101699.72;10095656;28;20047;-74
2024/02/03 14:09:51;;;;;;;16.27;9.30;;;;;;;9.09;100.00;101712.31;10107323;28;20047;-76
2024/02/03 14:14:48;;;;;;;11.48;8.30;;;;;;;9.05;100.00;101717.50;10103192;28;20046;-73
2024/02/03 14:19:47;;;;;;;18.33;9.27;;;;;;;9.10;100.00;101724.84;10108654;28;20490;-79
2024/02/03 14:24:44;;;;;;;16.40;7.57;;;;;;;9.09;100.00;101706.88;10096712;28;20125;-77
2024/02/03 14:29:41;;;;;;;19.02;8.40;;;;;;;9.17;100.00;101715.28;10110162;28;20047;-78
2024/02/03 14:34:37;;;;;;;19.13;8.40;;;;;;;9.56;100.00;101716.31;10094197;28;20082;-76
2024/02/03 14:39:34;;;;;;;16.98;8.27;;;;;;;9.57;100.00;101715.22;10104919;28;20407;-76
2024/02/03 14:44:32;;;;;;;15.93;8.10;;;;;;;9.32;100.00;101722.50;10108374;28;20057;-76
2024/02/03 14:49:28;;;;;;;20.83;9.35;;;;;;;9.13;100.00;101729.75;10098181;28;20059;-76
2024/02/03 14:54:25;;;;;;;16.98;8.73;;;;;;;9.07;100.00;101742.59;10094764;28;20047;-77
2024/02/03 14:59:21;;;;;;;17.20;8.85;;;;;;;8.98;100.00;101739.69;10102175;28;20147;-75
2024/02/03 15:04:18;;;;;;;19.95;9.05;;;;;;;8.93;100.00;101747.88;10089215;28;20050;-77
2024/02/03 15:09:15;;;;;;;18.30;9.95;;;;;;;8.88;100.00;101756.09;10098314;28;20054;-73
2024/02/03 15:14:11;;;;;;;17.23;9.60;;;;;;;8.79;100.00;101785.84;10108208;28;20525;-74
2024/02/03 15:19:08;;;;;;;17.85;10.98;;;;;;;8.50;100.00;101788.44;10106050;28;20070;-74
2024/02/03 15:24:07;;;;;;;25.85;10.85;;;;;;;8.49;100.00;101786.78;10090382;28;20043;-74
2024/02/03 15:29:04;;;;;;;22.83;9.95;;;;;;;8.42;100.00;101786.25;10102702;28;20605;-74
2024/02/03 15:34:01;;;;;;;23.13;9.57;;;;;;;8.41;100.00;101779.19;10104802;28;20134;-75
2024/02/03 15:38:58;;;;;;;21.85;9.00;;;;;;;8.38;100.00;101785.97;10106922;28;20089;-76
2024/02/03 15:43:57;;;;;;;18.88;8.77;;;;;;;8.34;100.00;101789.53;10110382;28;20423;-75
2024/02/03 15:48:53;;;;;;;18.52;8.18;;;;;;;8.35;100.00;101788.44;10111848;28;20394;-74
2024/02/03 15:53:50;;;;;;;14.63;7.70;;;;;;;8.25;100.00;101785.75;10107973;28;20046;-75
2024/02/03 15:58:47;;;;;;;23.25;8.73;;;;;;;8.21;100.00;101797.19;10106331;28;20098;-73
2024/02/03 16:03:44;;;;;;;20.13;8.63;;;;;;;8.19;100.00;101783.03;10107518;28;20175;-74
2024/02/03 16:08:43;;;;;;;20.70;9.43;;;;;;;8.18;100.00;101781.38;10109766;28;20039;-73
2024/02/03 16:13:42;;;;;;;16.33;8.75;;;;;;;8.07;100.00;101771.59;10107295;28;20055;-71
2024/02/03 16:18:39;;;;;;;26.98;9.02;;;;;;;7.97;100.00;101768.91;10106858;28;20043;-72
2024/02/03 16:23:35;;;;;;;23.50;9.25;;;;;;;8.01;100.00;101770.00;10101959;28;20098;-73
2024/02/03 16:28:32;;;;;;;16.80;7.88;;;;;;;7.97;100.00;101758.81;10096908;28;20121;-70
2024/02/03 16:33:29;;;;;;;23.65;8.85;;;;;;;7.96;100.00;101767.25;10091461;28;20503;-71
2024/02/03 16:38:27;;;;;;;21.38;11.38;;;;;;;8.00;100.00;101771.88;10097718;28;20054;-70
2024/02/03 16:43:23;;;;;;;22.80;10.02;;;;;;;8.06;100.00;101772.69;10099786;28;20670;-71
2024/02/03 16:48:21;;;;;;;23.55;11.48;;;;;;;7.99;100.00;101774.88;10106939;28;20046;-71
2024/02/03 16:53:18;;;;;;;25.25;11.35;;;;;;;7.98;100.00;101786.84;10094019;28;20130;-72
2024/02/03 16:58:15;;;;;;;23.42;11.77;;;;;;;8.00;100.00;101790.13;10094374;28;20080;-73
2024/02/03 17:03:11;;;;;;;20.42;11.38;;;;;;;8.00;100.00;101798.28;10086675;28;20057;-73
2024/02/03 17:08:11;;;;;;;19.63;11.23;;;;;;;7.97;100.00;101804.31;10097697;28;20097;-72
2024/02/03 17:13:08;;;;;;;21.02;10.85;;;;;;;7.90;100.00;101796.41;10110728;28;20047;-72
2024/02/03 17:18:04;;;;;;;26.20;11.88;;;;;;;7.85;100.00;101820.09;10111514;28;20807;-74
2024/02/03 17:23:01;;;;;;;15.18;9.80;;;;;;;7.79;100.00;101801.03;10105553;28;20047;-72
2024/02/03 17:27:58;;;;;;;22.52;10.45;;;;;;;7.68;100.00;101815.75;10108366;28;20140;-82
2024/02/03 17:32:54;;;;;;;31.02;11.10;;;;;;;7.62;100.00;101816.00;10110161;28;20137;-74
2024/02/03 17:37:51;;;;;;;16.40;10.00;;;;;;;7.60;100.00;101802.66;10096290;28;20150;-77
2024/02/03 17:42:48;;;;;;;19.85;10.07;;;;;;;7.52;100.00;101812.19;10104103;28;20042;-74
2024/02/03 17:47:46;;;;;;;28.35;12.15;;;;;;;7.53;100.00;101807.56;10109539;28;20051;-74
2024/02/03 17:52:43;;;;;;;12.63;10.00;;;;;;;7.52;100.00;101822.22;10107717;28;20085;-73
2024/02/03 17:57:39;;;;;;;21.00;11.02;;;;;;;7.52;100.00;101833.13;10116952;28;20045;-74
2024/02/03 18:02:36;;;;;;;21.27;10.35;;;;;;;7.49;100.00;101818.16;10106645;28;20498;-76
2024/02/03 18:07:34;;;;;;;18.25;9.60;;;;;;;7.47;100.00;101833.13;10101173;28;20050;-79
2024/02/03 18:12:30;;;;;;;22.88;10.38;;;;;;;7.46;100.00;101829.59;10107102;28;20058;-75
2024/02/03 18:17:27;;;;;;;18.98;10.80;;;;;;;7.35;100.00;101830.66;10103302;28;20047;-78
2024/02/03 18:22:24;;;;;;;14.88;9.30;;;;;;;7.26;100.00;101834.97;10103783;28;20444;-73
2024/02/03 18:27:20;;;;;;;26.90;10.82;;;;;;;7.26;100.00;101840.41;10108558;28;20104;-74
2024/02/03 18:32:17;;;;;;;18.58;10.57;;;;;;;7.20;100.00;101842.31;10105836;28;20051;-75
2024/02/03 18:37:14;;;;;;;23.23;9.77;;;;;;;7.16;100.00;101835.78;10107254;28;20048;-75
2024/02/03 18:42:10;;;;;;;34.10;11.60;;;;;;;7.11;100.00;101833.03;10108359;28;20565;-75
2024/02/03 18:47:07;;;;;;;21.83;10.60;;;;;;;7.06;100.00;101841.19;10115340;28;20507;-73
2024/02/03 18:52:04;;;;;;;18.20;10.57;;;;;;;7.00;100.00;101845.78;10113104;28;20046;-74
2024/02/03 18:57:00;;;;;;;27.83;10.70;;;;;;;7.02;100.00;101861.84;10107591;28;20057;-73
2024/02/03 19:01:57;;;;;;;22.67;10.02;;;;;;;7.04;100.00;101873.28;10106546;28;20058;-75
2024/02/03 19:06:54;;;;;;;27.27;10.25;;;;;;;7.03;100.00;101855.31;10095777;28;20051;-73
2024/02/03 19:11:50;;;;;;;21.75;9.30;;;;;;;7.03;100.00;101874.34;10104001;28;20182;-73
2024/02/03 19:16:47;;;;;;;18.38;10.10;;;;;;;7.00;100.00;101870.25;10106294;28;20050;-73
2024/02/03 19:21:43;;;;;;;14.38;9.02;;;;;;;6.97;100.00;101853.66;10097587;28;20057;-78
2024/02/03 19:26:40;;;;;;;22.88;11.15;;;;;;;6.97;100.00;101864.53;10106986;28;20042;-75
2024/02/03 19:31:37;;;;;;;15.70;10.38;;;;;;;6.87;100.00;101866.13;10099300;28;20054;-74
2024/02/03 19:36:33;;;;;;;23.70;10.38;;;;;;;6.80;100.00;101851.13;10107646;28;20694;-73
2024/02/03 19:41:30;;;;;;;18.58;10.65;;;;;;;6.71;100.00;101848.09;10112241;28;20078;-75
2024/02/03 19:46:26;;;;;;;17.02;10.52;;;;;;;6.60;100.00;101840.97;10095982;28;20505;-77
2024/02/03 19:51:24;;;;;;;22.60;10.63;;;;;;;6.54;100.00;101840.13;10094818;28;20066;-73
2024/02/03 19:56:21;;;;;;;20.00;11.35;;;;;;;6.40;100.00;101839.75;10104505;28;20062;-75
2024/02/03 20:01:18;;;;;;;25.58;11.55;;;;;;;6.35;100.00;101847.06;10097282;28;20047;-74
2024/02/03 20:06:16;;;;;;;19.77;10.65;;;;;;;6.31;100.00;101858.47;10096455;28;20055;-74
2024/02/03 20:11:13;;;;;;;25.52;12.55;;;;;;;6.21;100.00;101857.56;10099800;28;20051;-76
2024/02/03 20:16:11;;;;;;;22.00;11.55;;;;;;;6.23;100.00;101858.13;10102288;28;20058;-73
2024/02/03 20:21:08;;;;;;;18.77;10.57;;;;;;;6.19;100.00;101862.44;10113572;28;20042;-72
2024/02/03 20:26:04;;;;;;;24.02;12.77;;;;;;;6.13;100.00;101842.59;10095980;28;20046;-72
2024/02/03 20:31:01;;;;;;;22.90;12.27;;;;;;;6.06;100.00;101848.22;10113798;28;20134;-72
2024/02/03 20:35:57;;;;;;;20.42;11.25;;;;;;;6.02;100.00;101860.69;10115069;28;20054;-72
2024/02/03 20:40:54;;;;;;;24.80;10.90;;;;;;;5.99;100.00;101854.97;10108845;28;20042;-72
2024/02/03 20:45:53;;;;;;;23.85;11.27;;;;;;;5.96;100.00;101853.56;10102755;28;20449;-70
2024/02/03 20:50:50;;;;;;;24.23;11.80;;;;;;;5.89;100.00;101850.22;10111792;28;20097;-72
2024/02/03 20:55:46;;;;;;;28.98;10.93;;;;;;;5.81;100.00;101864.28;10096928;28;20445;-71
2024/02/03 21:00:43;;;;;;;20.42;10.65;;;;;;;5.82;100.00;101855.84;10108286;28;20565;-72
2024/02/03 21:05:40;;;;;;;22.98;12.02;;;;;;;5.76;100.00;101854.19;10098441;28;20404;-72
2024/02/03 21:10:36;;;;;;;23.58;12.27;;;;;;;5.72;100.00;101852.25;10108754;28;20506;-72
2024/02/03 21:15:33;;;;;;;29.30;12.73;;;;;;;5.73;100.00;101845.72;10100484;28;20099;-73
2024/02/03 21:20:31;;;;;;;17.35;11.10;;;;;;;5.77;100.00;101844.16;10099402;28;20051;-73
2024/02/03 21:25:28;;;;;;;22.85;12.35;;;;;;;5.74;100.00;101837.34;10098590;28;20125;-70
2024/02/03 21:30:24;;;;;;;18.52;10.95;;;;;;;5.74;100.00;101850.09;10100142;28;20062;-71
2024/02/03 21:35:21;;;;;;;29.30;10.70;;;;;;;5.85;100.00;101830.13;10105455;28;20051;-71
2024/02/03 21:40:18;;;;;;;18.50;9.80;;;;;;;5.78;100.00;101832.19;10115068;28;20049;-71
2024/02/03 21:45:14;;;;;;;21.27;9.90;;;;;;;5.80;100.00;101825.47;10109582;28;20047;-70
2024/02/03 21:50:11;;;;;;;17.40;10.07;;;;;;;5.80;100.00;101820.03;10102416;28;20055;-71
2024/02/03 21:55:08;;;;;;;19.20;10.70;;;;;;;5.77;100.00;101820.53;10103575;28;20086;-71
2024/02/03 22:00:05;;;;;;;21.55;11.10;;;;;;;5.70;100.00;101811.78;10107224;28;20057;-71
2024/02/03 22:05:02;;;;;;;20.25;9.98;;;;;;;5.76;100.00;101820.81;10103659;28;20102;-70
2024/02/03 22:09:58;;;;;;;18.50;10.50;;;;;;;5.80;100.00;101819.19;10094717;28;20039;-71
2024/02/03 22:14:55;;;;;;;19.85;10.43;;;;;;;5.68;100.00;101812.03;10123083;28;20074;-71